createdAt,value
2023-03-08T00:01:45.231Z,99725.25
2023-03-08T00:04:13.101Z,99721.13
2023-03-08T00:06:41.289Z,99713.34
2023-03-08T00:09:11.560Z,99714.75
2023-03-08T00:11:38.428Z,99702.38
2023-03-08T00:14:05.302Z,99700.94
2023-03-08T00:16:32.073Z,99694.19
2023-03-08T00:19:01.816Z,99704.28
2023-03-08T00:21:29.871Z,99698.47
2023-03-08T00:23:57.735Z,99701.47
2023-03-08T00:26:25.044Z,99703.69
2023-03-08T00:28:54.895Z,99697.78
2023-03-08T00:31:22.218Z,99688.94
2023-03-08T00:33:53.619Z,99691.13
2023-03-08T00:36:20.777Z,99694.00
2023-03-08T00:38:48.270Z,99695.91
2023-03-08T00:41:15.063Z,99687.88
2023-03-08T00:43:42.451Z,99684.38
2023-03-08T00:46:09.776Z,99684.38
2023-03-08T00:48:36.538Z,99688.16
2023-03-08T00:51:03.943Z,99686.75
2023-03-08T00:53:30.958Z,99681.03
2023-03-08T00:55:59.613Z,99682.03
2023-03-08T00:58:30.217Z,99681.06
2023-03-08T01:00:58.160Z,99680.44
2023-03-08T01:03:25.169Z,99670.47
2023-03-08T01:05:54.255Z,99663.00
2023-03-08T01:08:23.033Z,99657.31
2023-03-08T01:10:57.708Z,99642.09
2023-03-08T01:13:26.297Z,99646.38
2023-03-08T01:15:53.146Z,99637.06
2023-03-08T01:18:19.993Z,99632.44
2023-03-08T01:20:57.758Z,99625.44
2023-03-08T01:23:25.449Z,99614.56
2023-03-08T01:25:59.994Z,99608.56
2023-03-08T01:28:26.788Z,99603.97
2023-03-08T01:30:53.505Z,99604.41
2023-03-08T01:33:21.032Z,99604.88
2023-03-08T01:35:49.939Z,99604.28
2023-03-08T01:38:16.683Z,99603.00
2023-03-08T01:40:43.411Z,99608.38
2023-03-08T01:43:29.649Z,99604.22
2023-03-08T01:46:30.938Z,99594.81
2023-03-08T01:49:24.849Z,99580.16
2023-03-08T01:52:07.271Z,99569.72
2023-03-08T01:54:41.670Z,99568.22
2023-03-08T01:57:16.265Z,99565.69
2023-03-08T01:59:44.132Z,99565.53
2023-03-08T02:02:10.911Z,99558.91
2023-03-08T02:04:38.675Z,99552.41
2023-03-08T02:07:08.726Z,99548.47
2023-03-08T02:09:35.942Z,99541.50
2023-03-08T02:12:04.949Z,99527.41
2023-03-08T02:14:32.898Z,99531.19
2023-03-08T02:16:59.661Z,99522.22
2023-03-08T02:20:12.664Z,99518.53
2023-03-08T02:22:41.160Z,99517.06
2023-03-08T02:25:19.571Z,99513.69
2023-03-08T02:27:46.565Z,99506.84
2023-03-08T02:30:15.635Z,99492.75
2023-03-08T02:32:42.504Z,99496.25
2023-03-08T02:35:09.890Z,99493.06
2023-03-08T02:37:36.562Z,99492.28
2023-03-08T02:40:03.922Z,99482.81
2023-03-08T02:42:30.592Z,99473.94
2023-03-08T02:44:57.366Z,99478.06
2023-03-08T02:47:24.189Z,99483.94
2023-03-08T02:49:51.141Z,99476.34
2023-03-08T02:52:18.657Z,99470.19
2023-03-08T02:54:45.541Z,99455.97
2023-03-08T02:57:12.218Z,99469.69
2023-03-08T02:59:39.160Z,99459.34
2023-03-08T03:02:06.126Z,99451.81
2023-03-08T03:04:34.204Z,99439.31
2023-03-08T03:07:01.344Z,99442.34
2023-03-08T03:09:29.702Z,99449.41
2023-03-08T03:11:56.887Z,99446.69
2023-03-08T03:14:23.902Z,99428.72
2023-03-08T03:16:50.661Z,99426.47
2023-03-08T03:19:17.465Z,99417.84
2023-03-08T03:21:44.236Z,99408.22
2023-03-08T03:24:11.027Z,99416.50
2023-03-08T03:26:46.041Z,99407.00
2023-03-08T03:29:12.946Z,99414.22
2023-03-08T03:31:41.980Z,99410.72
2023-03-08T03:34:09.465Z,99418.84
2023-03-08T03:36:37.165Z,99403.44
2023-03-08T03:39:04.464Z,99402.38
2023-03-08T03:41:33.925Z,99388.47
2023-03-08T03:44:05.601Z,99384.97
2023-03-08T03:46:33.461Z,99367.78
2023-03-08T03:49:00.231Z,99360.03
2023-03-08T03:51:32.999Z,99355.44
2023-03-08T03:54:12.796Z,99356.09
2023-03-08T03:56:41.041Z,99343.25
2023-03-08T03:59:07.815Z,99341.69
2023-03-08T04:01:34.957Z,99336.78
2023-03-08T04:04:10.972Z,99328.59
2023-03-08T04:06:41.270Z,99322.75
2023-03-08T04:09:13.819Z,99324.28
2023-03-08T04:11:41.618Z,99312.63
2023-03-08T04:14:15.168Z,99305.06
2023-03-08T04:16:42.859Z,99291.06
2023-03-08T04:19:16.997Z,99284.06
2023-03-08T04:21:50.169Z,99287.94
2023-03-08T04:24:18.470Z,99275.19
2023-03-08T04:26:48.633Z,99286.59
2023-03-08T04:29:18.361Z,99277.16
2023-03-08T04:31:45.643Z,99283.47
2023-03-08T04:34:16.240Z,99282.81
2023-03-08T04:36:46.575Z,99275.31
2023-03-08T04:39:14.029Z,99273.75
2023-03-08T04:41:41.028Z,99266.06
2023-03-08T04:44:18.688Z,99261.91
2023-03-08T04:46:49.221Z,99255.06
2023-03-08T04:49:24.141Z,99246.41
2023-03-08T04:51:55.363Z,99249.34
2023-03-08T04:54:23.941Z,99239.00
2023-03-08T04:56:57.042Z,99235.44
2023-03-08T04:59:25.342Z,99230.50
2023-03-08T05:01:54.881Z,99224.16
2023-03-08T05:04:22.674Z,99213.38
2023-03-08T05:06:49.427Z,99210.84
2023-03-08T05:09:21.917Z,99213.63
2023-03-08T05:11:51.135Z,99187.84
2023-03-08T05:14:18.041Z,99195.00
2023-03-08T05:16:44.859Z,99186.94
2023-03-08T05:19:12.348Z,99175.13
2023-03-08T05:21:46.387Z,99168.19
2023-03-08T05:24:14.450Z,99160.97
2023-03-08T05:26:41.139Z,99155.69
2023-03-08T05:29:10.006Z,99141.25
2023-03-08T05:31:40.163Z,99143.56
2023-03-08T05:34:10.916Z,99129.94
2023-03-08T05:36:42.206Z,99124.59
2023-03-08T05:39:09.163Z,99124.53
2023-03-08T05:41:42.040Z,99117.06
2023-03-08T05:44:09.652Z,99112.19
2023-03-08T05:46:40.723Z,99098.59
2023-03-08T05:49:08.773Z,99091.81
2023-03-08T05:51:36.394Z,99086.91
2023-03-08T05:54:03.606Z,99072.63
2023-03-08T05:56:33.241Z,99062.78
2023-03-08T05:59:08.211Z,99061.09
2023-03-08T06:01:34.879Z,99053.66
2023-03-08T06:04:14.810Z,99057.03
2023-03-08T06:06:43.359Z,99053.50
2023-03-08T06:09:10.238Z,99042.16
2023-03-08T06:11:39.889Z,99048.66
2023-03-08T06:14:07.358Z,99053.84
2023-03-08T06:16:35.236Z,99059.22
2023-03-08T06:19:02.679Z,99063.91
2023-03-08T06:21:30.667Z,99061.97
2023-03-08T06:24:03.446Z,99059.44
2023-03-08T06:26:30.938Z,99062.00
2023-03-08T06:28:57.876Z,99053.06
2023-03-08T06:31:28.533Z,99051.50
2023-03-08T06:33:55.732Z,99050.97
2023-03-08T06:36:25.783Z,99045.06
2023-03-08T06:38:52.852Z,99031.78
2023-03-08T06:41:20.724Z,99031.78
2023-03-08T06:43:51.601Z,99038.59
2023-03-08T06:46:19.366Z,99029.31
2023-03-08T06:48:47.202Z,99023.47
2023-03-08T06:51:15.275Z,99016.69
2023-03-08T06:53:44.494Z,99013.72
2023-03-08T06:56:15.029Z,99004.09
2023-03-08T06:58:41.954Z,98986.44
2023-03-08T07:01:12.636Z,98988.78
2023-03-08T07:03:39.537Z,98986.44
2023-03-08T07:06:10.032Z,98982.31
2023-03-08T07:08:38.135Z,98980.28
2023-03-08T07:11:06.693Z,98974.50
2023-03-08T07:13:33.555Z,98970.84
2023-03-08T07:16:05.078Z,98958.84
2023-03-08T07:18:31.862Z,98964.06
2023-03-08T07:20:58.830Z,98947.69
2023-03-08T07:23:25.822Z,98952.06
2023-03-08T07:25:52.944Z,98945.63
2023-03-08T07:28:21.079Z,98946.59
2023-03-08T07:30:49.024Z,98935.22
2023-03-08T07:33:16.995Z,98944.25
2023-03-08T07:35:43.953Z,98937.59
2023-03-08T07:38:14.909Z,98930.34
2023-03-08T07:40:41.879Z,98921.41
2023-03-08T07:43:08.707Z,98927.06
2023-03-08T07:46:00.415Z,98922.19
2023-03-08T07:48:27.420Z,98912.03
2023-03-08T07:50:54.147Z,98906.25
2023-03-08T07:53:21.125Z,98898.97
2023-03-08T07:55:47.874Z,98903.13
2023-03-08T07:58:14.656Z,98897.31
2023-03-08T08:00:41.400Z,98897.94
2023-03-08T08:03:08.165Z,98903.25
2023-03-08T08:05:36.757Z,98911.22
2023-03-08T08:08:05.330Z,98911.16
2023-03-08T08:10:32.024Z,98917.44
2023-03-08T08:12:58.793Z,98918.56
2023-03-08T08:15:25.893Z,98914.66
2023-03-08T08:17:52.968Z,98920.75
2023-03-08T08:20:19.655Z,98925.56
2023-03-08T08:22:46.376Z,98915.69
2023-03-08T08:25:13.169Z,98904.47
2023-03-08T08:27:40.022Z,98904.38
2023-03-08T08:30:07.631Z,98897.63
2023-03-08T08:32:35.327Z,98898.41
2023-03-08T08:35:02.171Z,98897.06
2023-03-08T08:37:30.433Z,98904.41
2023-03-08T08:39:58.605Z,98897.69
2023-03-08T08:42:25.799Z,98909.78
2023-03-08T08:44:53.546Z,98910.69
2023-03-08T08:47:20.299Z,98894.13
2023-03-08T08:49:47.084Z,98897.91
2023-03-08T08:52:13.776Z,98907.06
2023-03-08T08:54:41.567Z,98893.22
2023-03-08T08:57:08.384Z,98894.75
2023-03-08T08:59:35.187Z,98883.69
2023-03-08T09:02:02.402Z,98869.25
2023-03-08T09:04:29.222Z,98872.88
2023-03-08T09:06:56.258Z,98882.25
2023-03-08T09:09:23.074Z,98872.72
2023-03-08T09:11:55.270Z,98876.63
2023-03-08T09:14:22.956Z,98881.91
2023-03-08T09:16:50.777Z,98866.03
2023-03-08T09:19:17.545Z,98868.47
2023-03-08T09:21:44.257Z,98846.06
2023-03-08T09:24:11.448Z,98845.13
2023-03-08T09:26:38.243Z,98851.22
2023-03-08T09:29:05.587Z,98849.75
2023-03-08T09:31:34.304Z,98854.28
2023-03-08T09:34:04.656Z,98855.38
2023-03-08T09:36:31.697Z,98863.84
2023-03-08T09:38:58.598Z,98860.88
2023-03-08T09:41:35.355Z,98872.31
2023-03-08T09:44:26.959Z,98867.16
2023-03-08T09:46:57.587Z,98870.91
2023-03-08T09:49:29.738Z,98868.44
2023-03-08T09:52:02.244Z,98857.50
2023-03-08T09:54:29.423Z,98848.50
2023-03-08T09:56:57.019Z,98845.78
2023-03-08T09:59:41.092Z,98849.44
2023-03-08T10:02:31.539Z,98843.22
2023-03-08T10:05:35.709Z,98839.03
2023-03-08T10:08:17.574Z,98842.06
2023-03-08T10:10:56.550Z,98832.69
2023-03-08T10:13:36.908Z,98835.16
2023-03-08T10:16:10.416Z,98835.16
2023-03-08T10:18:45.670Z,98831.69
2023-03-08T10:21:17.207Z,98831.94
2023-03-08T10:23:47.292Z,98825.75
2023-03-08T10:26:15.635Z,98824.09
2023-03-08T10:28:42.379Z,98809.50
2023-03-08T10:31:29.398Z,98820.81
2023-03-08T10:34:16.738Z,98811.59
2023-03-08T10:37:01.806Z,98808.59
2023-03-08T10:39:28.732Z,98815.72
2023-03-08T10:42:07.238Z,98817.72
2023-03-08T10:44:57.737Z,98820.16
2023-03-08T10:47:35.389Z,98811.13
2023-03-08T10:50:23.393Z,98815.53
2023-03-08T10:52:51.130Z,98814.91
2023-03-08T10:55:20.115Z,98806.34
2023-03-08T10:57:55.722Z,98806.94
2023-03-08T11:00:29.467Z,98807.59
2023-03-08T11:03:12.914Z,98804.69
2023-03-08T11:05:40.084Z,98805.50
2023-03-08T11:08:18.956Z,98814.34
2023-03-08T11:10:45.956Z,98820.94
2023-03-08T11:13:20.564Z,98821.69
2023-03-08T11:15:55.983Z,98806.66
2023-03-08T11:18:42.272Z,98802.09
2023-03-08T11:21:32.151Z,98803.06
2023-03-08T11:24:29.979Z,98796.94
2023-03-08T11:27:18.546Z,98798.34
2023-03-08T11:29:57.612Z,98804.44
2023-03-08T11:32:53.149Z,98794.13
2023-03-08T11:39:24.719Z,98781.19
2023-03-08T11:42:04.467Z,98785.88
2023-03-08T11:44:53.143Z,98796.25
2023-03-08T11:48:19.505Z,98768.34
2023-03-08T11:50:56.547Z,98775.31
2023-03-08T11:53:32.366Z,98784.38
2023-03-08T11:56:11.244Z,98798.25
2023-03-08T11:58:56.509Z,98785.81
2023-03-08T12:01:30.968Z,98785.81
2023-03-08T12:04:04.178Z,98787.81
2023-03-08T12:06:35.802Z,98791.16
2023-03-08T12:09:10.222Z,98785.69
2023-03-08T12:11:55.274Z,98790.59
2023-03-08T12:14:26.591Z,98786.91
2023-03-08T12:17:07.871Z,98780.28
2023-03-08T12:19:43.586Z,98773.41
2023-03-08T12:22:48.457Z,98785.41
2023-03-08T12:25:38.073Z,98788.63
2023-03-08T12:28:07.279Z,98786.75
2023-03-08T12:30:49.015Z,98789.28
2023-03-08T12:33:16.773Z,98781.56
2023-03-08T12:35:51.613Z,98778.47
2023-03-08T12:38:18.452Z,98776.53
2023-03-08T12:40:53.555Z,98780.09
2023-03-08T12:43:22.412Z,98780.75
2023-03-08T12:46:13.282Z,98768.78
2023-03-08T12:48:51.879Z,98768.34
2023-03-08T12:51:32.273Z,98757.50
2023-03-08T12:54:04.511Z,98767.88
2023-03-08T12:56:51.467Z,98756.22
2023-03-08T12:59:18.944Z,98755.81
2023-03-08T13:02:07.414Z,98761.84
2023-03-08T13:04:41.306Z,98749.22
2023-03-08T13:07:17.604Z,98760.19
2023-03-08T13:09:54.079Z,98757.63
2023-03-08T13:12:38.257Z,98757.53
2023-03-08T13:15:40.518Z,98756.50
2023-03-08T13:18:30.437Z,98763.78
2023-03-08T13:21:19.478Z,98758.63
2023-03-08T13:23:54.256Z,98762.53
2023-03-08T13:26:58.653Z,98754.94
2023-03-08T13:29:31.276Z,98758.28
2023-03-08T13:31:58.333Z,98756.84
2023-03-08T13:34:33.281Z,98751.09
2023-03-08T13:37:00.318Z,98761.03
2023-03-08T13:39:31.592Z,98767.56
2023-03-08T13:42:11.461Z,98742.06
2023-03-08T13:44:40.960Z,98752.47
2023-03-08T13:47:28.216Z,98757.22
2023-03-08T13:50:21.434Z,98754.72
2023-03-08T13:52:49.897Z,98767.47
2023-03-08T13:55:20.770Z,98763.56
2023-03-08T13:57:52.553Z,98752.88
2023-03-08T14:00:27.685Z,98749.38
2023-03-08T14:02:55.510Z,98757.84
2023-03-08T14:05:40.156Z,98758.84
2023-03-08T14:08:18.338Z,98760.56
2023-03-08T14:10:52.015Z,98769.00
2023-03-08T14:13:30.107Z,98770.69
2023-03-08T14:16:13.672Z,98764.53
2023-03-08T14:18:47.101Z,98769.28
2023-03-08T14:21:17.061Z,98770.50
2023-03-08T14:23:51.228Z,98765.09
2023-03-08T14:26:27.149Z,98769.03
2023-03-08T14:29:22.157Z,98758.41
2023-03-08T14:31:57.678Z,98763.00
2023-03-08T14:34:34.033Z,98764.25
2023-03-08T14:37:05.035Z,98763.22
2023-03-08T14:39:34.019Z,98761.66
2023-03-08T14:42:21.481Z,98768.91
2023-03-08T14:45:10.016Z,98774.53
2023-03-08T14:47:54.531Z,98768.69
2023-03-08T14:50:33.800Z,98767.47
2023-03-08T14:53:02.628Z,98770.06
2023-03-08T14:55:35.082Z,98763.00
2023-03-08T14:58:11.631Z,98782.53
2023-03-08T15:00:54.126Z,98774.84
2023-03-08T15:03:21.776Z,98779.69
2023-03-08T15:05:48.691Z,98785.41
2023-03-08T15:08:17.697Z,98786.28
2023-03-08T15:10:45.029Z,98788.44
2023-03-08T15:13:20.809Z,98783.25
2023-03-08T15:15:51.134Z,98779.00
2023-03-08T15:18:19.235Z,98782.06
2023-03-08T15:20:50.290Z,98772.72
2023-03-08T15:23:46.743Z,98774.97
2023-03-08T15:26:21.086Z,98761.75
2023-03-08T15:28:48.120Z,98758.25
2023-03-08T15:31:15.149Z,98755.69
2023-03-08T15:33:42.682Z,98743.03
2023-03-08T15:36:13.508Z,98738.47
2023-03-08T15:38:43.601Z,98739.91
2023-03-08T15:41:18.547Z,98733.22
2023-03-08T15:43:46.445Z,98734.31
2023-03-08T15:46:14.238Z,98730.19
2023-03-08T15:48:41.535Z,98729.81
2023-03-08T15:51:17.291Z,98745.53
2023-03-08T15:53:44.427Z,98740.59
2023-03-08T15:56:11.214Z,98739.63
2023-03-08T15:58:38.141Z,98730.53
2023-03-08T16:01:06.217Z,98742.13
2023-03-08T16:03:35.206Z,98760.09
2023-03-08T16:06:02.674Z,98749.63
2023-03-08T16:08:29.765Z,98748.19
2023-03-08T16:10:56.896Z,98740.53
2023-03-08T16:13:23.721Z,98768.56
2023-03-08T16:15:50.798Z,98770.88
2023-03-08T16:18:17.648Z,98752.72
2023-03-08T16:20:46.232Z,98745.53
2023-03-08T16:23:14.131Z,98744.94
2023-03-08T16:25:43.242Z,98749.50
2023-03-08T16:28:10.730Z,98733.75
2023-03-08T16:30:39.393Z,98741.72
2023-03-08T16:33:06.272Z,98732.41
2023-03-08T16:35:33.011Z,98726.59
2023-03-08T16:38:00.046Z,98734.00
2023-03-08T16:40:31.206Z,98735.75
2023-03-08T16:42:58.266Z,98741.78
2023-03-08T16:45:25.320Z,98736.56
2023-03-08T16:47:52.344Z,98744.16
2023-03-08T16:50:19.216Z,98737.31
2023-03-08T16:52:46.126Z,98742.47
2023-03-08T16:55:37.171Z,98735.75
2023-03-08T16:58:04.141Z,98711.69
2023-03-08T17:00:30.814Z,98695.25
2023-03-08T17:02:57.775Z,98673.50
2023-03-08T17:05:24.551Z,98712.03
2023-03-08T17:07:51.799Z,98736.75
2023-03-08T17:10:19.025Z,98710.94
2023-03-08T17:12:45.705Z,98701.50
2023-03-08T17:15:12.654Z,98696.94
2023-03-08T17:17:40.161Z,98696.66
2023-03-08T17:20:08.385Z,98696.34
2023-03-08T17:22:35.455Z,98704.06
2023-03-08T17:25:02.640Z,98706.78
2023-03-08T17:27:33.490Z,98696.69
2023-03-08T17:30:00.908Z,98690.84
2023-03-08T17:32:27.893Z,98695.78
2023-03-08T17:34:54.680Z,98694.41
2023-03-08T17:37:23.131Z,98703.47
2023-03-08T17:39:49.848Z,98687.84
2023-03-08T17:42:16.528Z,98703.50
2023-03-08T17:44:43.283Z,98707.13
2023-03-08T17:47:11.365Z,98697.94
2023-03-08T17:49:39.896Z,98701.94
2023-03-08T17:52:07.534Z,98693.97
2023-03-08T17:54:34.279Z,98692.50
2023-03-08T17:57:01.257Z,98702.19
2023-03-08T17:59:30.681Z,98697.03
2023-03-08T18:01:57.467Z,98697.94
2023-03-08T18:04:24.271Z,98703.16
2023-03-08T18:06:51.460Z,98692.44
2023-03-08T18:09:18.397Z,98693.34
2023-03-08T18:11:45.167Z,98688.81
2023-03-08T18:14:13.365Z,98695.22
2023-03-08T18:16:40.553Z,98680.63
2023-03-08T18:19:07.403Z,98686.59
2023-03-08T18:21:35.907Z,98688.88
2023-03-08T18:24:02.985Z,98702.19
2023-03-08T18:26:29.701Z,98692.41
2023-03-08T18:28:56.410Z,98697.66
2023-03-08T18:31:26.145Z,98708.78
2023-03-08T18:33:55.004Z,98699.09
2023-03-08T18:36:22.221Z,98698.75
2023-03-08T18:38:49.523Z,98692.94
2023-03-08T18:41:28.288Z,98697.72
2023-03-08T18:43:57.244Z,98700.59
2023-03-08T18:46:29.141Z,98682.84
2023-03-08T18:49:03.583Z,98691.59
2023-03-08T18:51:31.831Z,98692.59
2023-03-08T18:53:59.224Z,98703.38
2023-03-08T18:56:26.942Z,98700.47
2023-03-08T18:58:58.537Z,98707.94
2023-03-08T19:01:26.362Z,98696.59
2023-03-08T19:03:53.068Z,98703.34
2023-03-08T19:06:20.102Z,98696.09
2023-03-08T19:08:46.827Z,98701.09
2023-03-08T19:11:19.449Z,98695.09
2023-03-08T19:13:47.271Z,98691.16
2023-03-08T19:16:19.278Z,98711.63
2023-03-08T19:18:47.308Z,98717.69
2023-03-08T19:21:20.568Z,98710.84
2023-03-08T19:23:47.844Z,98702.94
2023-03-08T19:26:37.074Z,98699.19
2023-03-08T19:29:12.585Z,98689.75
2023-03-08T19:31:41.787Z,98683.59
2023-03-08T19:34:10.460Z,98675.97
2023-03-08T19:36:37.571Z,98671.72
2023-03-08T19:39:06.104Z,98660.88
2023-03-08T19:41:33.858Z,98672.88
2023-03-08T19:44:01.346Z,98658.19
2023-03-08T19:46:28.178Z,98651.72
2023-03-08T19:48:55.764Z,98651.88
2023-03-08T19:51:22.683Z,98634.22
2023-03-08T19:53:49.567Z,98633.38
2023-03-08T19:56:18.479Z,98629.34
2023-03-08T19:58:46.868Z,98629.16
2023-03-08T20:01:16.722Z,98634.09
2023-03-08T20:03:44.283Z,98631.69
2023-03-08T20:06:13.648Z,98637.38
2023-03-08T20:08:40.528Z,98631.28
2023-03-08T20:11:07.398Z,98628.22
2023-03-08T20:13:34.207Z,98642.03
2023-03-08T20:16:01.297Z,98652.66
2023-03-08T20:18:29.416Z,98645.25
2023-03-08T20:20:58.474Z,98649.75
2023-03-08T20:23:25.813Z,98645.81
2023-03-08T20:25:52.539Z,98655.31
2023-03-08T20:28:19.546Z,98675.63
2023-03-08T20:30:47.820Z,98656.16
2023-03-08T20:33:15.267Z,98648.09
2023-03-08T20:35:42.461Z,98652.03
2023-03-08T20:38:09.626Z,98648.22
2023-03-08T20:40:38.665Z,98641.03
2023-03-08T20:43:07.396Z,98649.59
2023-03-08T20:45:34.214Z,98636.63
2023-03-08T20:48:01.129Z,98642.72
2023-03-08T20:50:28.003Z,98627.00
2023-03-08T20:52:54.892Z,98620.34
2023-03-08T20:55:21.748Z,98617.47
2023-03-08T20:57:48.427Z,98618.38
2023-03-08T21:00:15.489Z,98623.66
2023-03-08T21:02:42.884Z,98608.13
2023-03-08T21:05:10.083Z,98618.31
2023-03-08T21:07:36.921Z,98608.75
2023-03-08T21:10:03.819Z,98612.59
2023-03-08T21:12:30.615Z,98604.16
2023-03-08T21:14:58.678Z,98600.81
2023-03-08T21:17:26.067Z,98599.22
2023-03-08T21:19:53.976Z,98602.97
2023-03-08T21:22:21.200Z,98597.69
2023-03-08T21:24:47.949Z,98586.31
2023-03-08T21:27:15.037Z,98589.66
2023-03-08T21:29:42.050Z,98585.41
2023-03-08T21:32:09.252Z,98594.75
2023-03-08T21:34:37.823Z,98595.28
2023-03-08T21:37:04.963Z,98585.72
2023-03-08T21:39:32.931Z,98587.81
2023-03-08T21:42:02.802Z,98583.91
2023-03-08T21:44:31.927Z,98585.53
2023-03-08T21:46:59.392Z,98591.56
2023-03-08T21:49:28.555Z,98595.53
2023-03-08T21:51:56.615Z,98576.59
2023-03-08T21:54:26.893Z,98582.06
2023-03-08T21:56:54.460Z,98573.38
2023-03-08T21:59:27.045Z,98580.50
2023-03-08T22:01:59.778Z,98575.13
2023-03-08T22:04:27.733Z,98573.56
2023-03-08T22:06:55.741Z,98578.50
2023-03-08T22:09:26.805Z,98575.81
2023-03-08T22:11:54.208Z,98595.91
2023-03-08T22:14:21.259Z,98584.22
2023-03-08T22:16:59.641Z,98574.25
2023-03-08T22:19:26.673Z,98551.56
2023-03-08T22:21:53.772Z,98532.38
2023-03-08T22:24:20.855Z,98534.81
2023-03-08T22:26:48.043Z,98528.94
2023-03-08T22:29:14.904Z,98552.09
2023-03-08T22:31:41.989Z,98544.63
2023-03-08T22:34:09.350Z,98557.50
2023-03-08T22:36:36.371Z,98550.09
2023-03-08T22:39:06.054Z,98543.88
2023-03-08T22:41:32.820Z,98540.44
2023-03-08T22:43:59.721Z,98558.31
2023-03-08T22:46:36.906Z,98581.81
2023-03-08T22:49:10.961Z,98585.28
2023-03-08T22:51:42.849Z,98569.47
2023-03-08T22:54:19.473Z,98567.41
2023-03-08T22:56:47.716Z,98568.53
2023-03-08T22:59:16.189Z,98571.22
2023-03-08T23:01:43.131Z,98573.13
2023-03-08T23:04:11.093Z,98589.56
2023-03-08T23:06:41.906Z,98591.13
2023-03-08T23:09:11.427Z,98589.09
2023-03-08T23:11:42.522Z,98595.31
2023-03-08T23:14:09.574Z,98587.56
2023-03-08T23:16:36.794Z,98586.16
2023-03-08T23:19:04.058Z,98581.81
2023-03-08T23:21:31.863Z,98570.44
2023-03-08T23:23:58.752Z,98581.03
2023-03-08T23:26:27.475Z,98592.66
2023-03-08T23:28:55.895Z,98596.13
2023-03-08T23:31:28.155Z,98603.81
2023-03-08T23:33:57.556Z,98604.31
2023-03-08T23:36:29.929Z,98599.19
2023-03-08T23:39:00.909Z,98594.78
2023-03-08T23:41:36.189Z,98599.88
2023-03-08T23:44:04.812Z,98596.88
2023-03-08T23:46:31.706Z,98591.63
2023-03-08T23:48:59.895Z,98586.19
2023-03-08T23:51:37.613Z,98592.75
2023-03-08T23:54:04.391Z,98580.84
2023-03-08T23:56:38.170Z,98589.88
2023-03-08T23:59:19.060Z,98596.59
